createdAt,value
2018-11-25T00:01:51.510Z,12.50
2018-11-25T00:04:20.360Z,12.17
2018-11-25T00:06:48.800Z,14.90
2018-11-25T00:09:17.309Z,11.27
2018-11-25T00:11:45.765Z,17.37
2018-11-25T00:14:14.580Z,14.27
2018-11-25T00:16:43.954Z,14.50
2018-11-25T00:19:12.487Z,14.03
2018-11-25T00:21:41.059Z,11.93
2018-11-25T00:24:09.560Z,13.03
2018-11-25T00:26:38.196Z,14.30
2018-11-25T00:29:06.680Z,14.27
2018-11-25T00:31:35.200Z,16.30
2018-11-25T00:34:04.783Z,14.43
2018-11-25T00:36:33.248Z,13.50
2018-11-25T00:39:01.891Z,13.40
2018-11-25T00:41:30.401Z,15.67
2018-11-25T00:43:58.913Z,15.93
2018-11-25T00:46:27.473Z,14.57
2018-11-25T00:48:56.044Z,15.73
2018-11-25T00:51:24.648Z,15.20
2018-11-25T00:53:53.238Z,14.97
2018-11-25T00:56:21.714Z,15.37
2018-11-25T00:58:50.349Z,17.90
2018-11-25T01:01:18.774Z,14.97
2018-11-25T01:03:47.344Z,16.17
2018-11-25T01:06:15.840Z,18.93
2018-11-25T01:08:44.534Z,15.93
2018-11-25T01:11:13.040Z,17.77
2018-11-25T01:13:42.703Z,17.77
2018-11-25T01:16:11.213Z,23.30
2018-11-25T01:18:39.620Z,19.63
2018-11-25T01:21:08.204Z,18.20
2018-11-25T01:23:36.669Z,19.77
2018-11-25T01:26:06.393Z,20.53
2018-11-25T01:28:34.836Z,17.67
2018-11-25T01:31:03.517Z,21.67
2018-11-25T01:33:32.066Z,19.60
2018-11-25T01:36:00.728Z,19.87
2018-11-25T01:38:29.180Z,18.17
2018-11-25T01:40:57.604Z,20.57
2018-11-25T01:43:26.629Z,18.70
2018-11-25T01:45:55.186Z,18.50
2018-11-25T01:48:23.625Z,19.33
2018-11-25T01:50:52.229Z,18.27
2018-11-25T01:53:20.682Z,19.20
2018-11-25T01:55:49.149Z,18.43
2018-11-25T01:58:17.613Z,18.10
2018-11-25T02:00:46.053Z,21.63
2018-11-25T02:03:15.180Z,22.47
2018-11-25T02:05:43.632Z,18.80
2018-11-25T02:08:12.082Z,18.77
2018-11-25T02:10:40.607Z,17.30
2018-11-25T02:13:09.070Z,18.37
2018-11-25T02:15:37.497Z,20.80
2018-11-25T02:18:05.984Z,28.60
2018-11-25T02:20:34.659Z,20.40
2018-11-25T02:23:03.201Z,20.00
2018-11-25T02:25:31.628Z,21.07
2018-11-25T02:28:00.665Z,18.53
2018-11-25T02:30:30.085Z,19.30
2018-11-25T02:32:58.494Z,22.47
2018-11-25T02:35:26.977Z,22.63
2018-11-25T02:37:55.415Z,21.63
2018-11-25T02:40:23.831Z,21.63
2018-11-25T02:42:52.334Z,22.60
2018-11-25T02:45:20.800Z,22.50
2018-11-25T02:47:49.224Z,22.27
2018-11-25T02:50:25.563Z,20.77
2018-11-25T02:52:54.866Z,22.37
2018-11-25T02:55:24.579Z,27.13
2018-11-25T02:57:53.066Z,19.93
2018-11-25T03:00:21.539Z,27.90
2018-11-25T03:02:50.077Z,22.97
2018-11-25T03:05:18.580Z,26.87
2018-11-25T03:07:47.189Z,24.87
2018-11-25T03:10:15.700Z,25.73
2018-11-25T03:12:44.326Z,22.60
2018-11-25T03:15:14.125Z,17.30
2018-11-25T03:17:42.633Z,22.57
2018-11-25T03:20:12.580Z,21.37
2018-11-25T03:22:41.161Z,22.43
2018-11-25T03:25:15.584Z,27.13
2018-11-25T03:27:44.095Z,22.00
2018-11-25T03:30:14.641Z,25.03
2018-11-25T03:32:43.451Z,26.03
2018-11-25T03:35:12.924Z,23.03
2018-11-25T03:37:41.401Z,21.67
2018-11-25T03:40:11.237Z,21.73
2018-11-25T03:42:39.717Z,20.27
2018-11-25T03:45:11.172Z,22.07
2018-11-25T03:47:39.590Z,22.57
2018-11-25T03:50:09.270Z,21.53
2018-11-25T03:52:37.699Z,22.00
2018-11-25T03:55:08.219Z,20.33
2018-11-25T03:57:36.697Z,19.77
2018-11-25T04:00:07.756Z,19.57
2018-11-25T04:02:36.147Z,25.20
2018-11-25T04:05:05.791Z,26.93
2018-11-25T04:07:34.241Z,29.07
2018-11-25T04:10:02.766Z,25.00
2018-11-25T04:12:31.236Z,30.00
2018-11-25T04:14:59.661Z,31.40
2018-11-25T04:17:28.120Z,28.17
2018-11-25T04:19:56.543Z,29.13
2018-11-25T04:22:25.004Z,36.30
2018-11-25T04:24:53.518Z,30.03
2018-11-25T04:27:21.940Z,27.73
2018-11-25T04:29:50.576Z,31.00
2018-11-25T04:32:19.064Z,28.47
2018-11-25T04:34:47.891Z,28.40
2018-11-25T04:37:16.407Z,30.80
2018-11-25T04:39:44.810Z,27.87
2018-11-25T04:42:13.266Z,28.00
2018-11-25T04:44:41.702Z,31.93
2018-11-25T04:47:10.273Z,30.07
2018-11-25T04:49:40.721Z,29.17
2018-11-25T04:52:09.154Z,31.50
2018-11-25T04:54:37.579Z,30.77
2018-11-25T04:57:06.127Z,31.00
2018-11-25T04:59:34.590Z,30.77
2018-11-25T05:02:03.096Z,30.07
2018-11-25T05:04:31.492Z,29.40
2018-11-25T05:07:00.011Z,27.87
2018-11-25T05:09:28.525Z,31.77
2018-11-25T05:11:56.977Z,28.67
2018-11-25T05:14:25.459Z,28.80
2018-11-25T05:16:53.893Z,27.33
2018-11-25T05:19:22.325Z,28.17
2018-11-25T05:21:50.766Z,31.87
2018-11-25T05:24:19.197Z,28.20
2018-11-25T05:26:47.678Z,31.60
2018-11-25T05:29:16.082Z,28.57
2018-11-25T05:31:44.521Z,27.43
2018-11-25T05:34:13.033Z,31.67
2018-11-25T05:36:42.230Z,26.80
2018-11-25T05:39:10.767Z,21.40
2018-11-25T05:41:39.185Z,25.20
2018-11-25T05:44:07.618Z,24.50
2018-11-25T05:46:36.325Z,32.93
2018-11-25T05:49:04.871Z,27.00
2018-11-25T05:51:33.317Z,30.93
2018-11-25T05:54:01.810Z,29.37
2018-11-25T05:56:30.420Z,29.70
2018-11-25T05:58:58.825Z,31.33
2018-11-25T06:01:27.240Z,30.60
2018-11-25T06:03:55.692Z,29.13
2018-11-25T06:06:24.110Z,32.67
2018-11-25T06:08:52.592Z,32.40
2018-11-25T06:11:21.131Z,34.87
2018-11-25T06:13:49.601Z,35.67
2018-11-25T06:16:18.049Z,33.77
2018-11-25T06:18:46.480Z,33.80
2018-11-25T06:21:14.962Z,34.23
2018-11-25T06:23:43.406Z,37.50
2018-11-25T06:26:11.851Z,34.27
2018-11-25T06:28:40.352Z,31.57
2018-11-25T06:31:08.769Z,29.37
2018-11-25T06:33:37.181Z,32.63
2018-11-25T06:36:05.785Z,37.30
2018-11-25T06:38:34.230Z,38.17
2018-11-25T06:41:02.669Z,39.57
2018-11-25T06:43:31.100Z,37.17
2018-11-25T06:45:59.538Z,34.47
2018-11-25T06:48:28.289Z,33.07
2018-11-25T06:50:56.716Z,34.03
2018-11-25T06:53:25.157Z,37.60
2018-11-25T06:55:53.734Z,32.30
2018-11-25T06:58:22.190Z,37.00
2018-11-25T07:00:50.644Z,35.97
2018-11-25T07:03:19.090Z,32.80
2018-11-25T07:05:47.542Z,32.80
2018-11-25T07:08:15.977Z,33.87
2018-11-25T07:10:45.030Z,33.77
2018-11-25T07:13:13.495Z,35.17
2018-11-25T07:15:41.897Z,40.47
2018-11-25T07:18:10.422Z,40.43
2018-11-25T07:20:38.851Z,38.70
2018-11-25T07:23:07.338Z,42.20
2018-11-25T07:25:35.757Z,39.40
2018-11-25T07:28:17.940Z,38.03
2018-11-25T07:30:33.412Z,38.77
2018-11-25T07:33:01.861Z,40.53
2018-11-25T07:35:30.741Z,37.60
2018-11-25T07:37:59.200Z,39.80
2018-11-25T07:40:27.661Z,40.00
2018-11-25T07:42:56.310Z,42.37
2018-11-25T07:45:30.689Z,39.03
2018-11-25T07:47:54.376Z,41.23
2018-11-25T07:50:22.856Z,40.43
2018-11-25T07:52:51.802Z,40.07
2018-11-25T07:55:21.630Z,41.37
2018-11-25T07:57:51.402Z,41.67
2018-11-25T08:00:21.813Z,41.07
2018-11-25T08:02:50.321Z,43.33
2018-11-25T08:05:19.936Z,41.90
2018-11-25T08:07:48.549Z,51.37
2018-11-25T08:10:17.060Z,41.40
2018-11-25T08:12:45.880Z,41.00
2018-11-25T08:15:16.036Z,45.33
2018-11-25T08:17:44.512Z,44.37
2018-11-25T08:20:22.450Z,43.13
2018-11-25T08:22:51.054Z,38.97
2018-11-25T08:25:20.328Z,41.60
2018-11-25T08:27:48.797Z,39.63
2018-11-25T08:30:20.881Z,40.27
2018-11-25T08:32:49.551Z,43.93
2018-11-25T08:35:19.056Z,38.30
2018-11-25T08:37:47.626Z,39.27
2018-11-25T08:40:17.168Z,34.60
2018-11-25T08:42:45.635Z,40.70
2018-11-25T08:45:14.681Z,38.03
2018-11-25T08:47:43.281Z,39.20
2018-11-25T08:50:13.208Z,35.37
2018-11-25T08:52:42.028Z,42.60
2018-11-25T08:55:15.490Z,42.83
2018-11-25T08:57:44.007Z,36.97
2018-11-25T09:00:15.523Z,38.90
2018-11-25T09:02:43.982Z,40.30
2018-11-25T09:05:13.627Z,37.07
2018-11-25T09:07:42.314Z,35.50
2018-11-25T09:10:12.790Z,35.27
2018-11-25T09:12:41.265Z,41.00
2018-11-25T09:15:15.090Z,48.97
2018-11-25T09:17:43.520Z,45.37
2018-11-25T09:20:14.067Z,44.93
2018-11-25T09:22:42.588Z,43.43
2018-11-25T09:25:15.990Z,45.67
2018-11-25T09:27:44.455Z,40.47
2018-11-25T09:30:14.852Z,45.47
2018-11-25T09:32:43.301Z,44.07
2018-11-25T09:35:11.842Z,43.27
2018-11-25T09:37:40.279Z,42.83
2018-11-25T09:40:10.464Z,47.37
2018-11-25T09:42:38.944Z,49.50
2018-11-25T09:45:12.824Z,50.53
2018-11-25T09:47:41.532Z,50.70
2018-11-25T09:50:12.037Z,44.67
2018-11-25T09:52:40.509Z,54.03
2018-11-25T09:55:11.919Z,51.27
2018-11-25T09:57:40.960Z,52.90
2018-11-25T10:00:14.498Z,54.70
2018-11-25T10:02:42.937Z,58.00
2018-11-25T10:05:11.557Z,62.03
2018-11-25T10:07:40.087Z,53.53
2018-11-25T10:10:11.857Z,55.40
2018-11-25T10:12:40.339Z,60.07
2018-11-25T10:15:11.305Z,65.83
2018-11-25T10:17:39.837Z,63.53
2018-11-25T10:20:12.569Z,70.70
2018-11-25T10:22:41.053Z,61.03
2018-11-25T10:25:10.848Z,66.47
2018-11-25T10:27:39.291Z,59.63
2018-11-25T10:30:11.744Z,62.97
2018-11-25T10:32:40.258Z,85.80
2018-11-25T10:35:09.094Z,62.20
2018-11-25T10:37:37.563Z,64.47
2018-11-25T10:40:13.720Z,63.30
2018-11-25T10:42:42.160Z,73.53
2018-11-25T10:45:12.807Z,56.17
2018-11-25T10:47:41.253Z,62.80
2018-11-25T10:50:12.329Z,55.60
2018-11-25T10:52:40.860Z,51.13
2018-11-25T10:55:10.625Z,54.70
2018-11-25T10:57:39.681Z,57.93
2018-11-25T11:00:19.715Z,55.87
2018-11-25T11:02:48.222Z,56.67
2018-11-25T11:05:21.928Z,52.93
2018-11-25T11:07:50.376Z,62.37
2018-11-25T11:10:18.841Z,64.50
2018-11-25T11:12:47.305Z,56.40
2018-11-25T11:15:15.841Z,57.87
2018-11-25T11:17:44.289Z,59.13
2018-11-25T11:20:12.885Z,63.57
2018-11-25T11:22:41.329Z,54.43
2018-11-25T11:25:09.879Z,72.90
2018-11-25T11:27:38.361Z,64.97
2018-11-25T11:30:09.550Z,63.90
2018-11-25T11:32:39.726Z,60.90
2018-11-25T11:35:09.006Z,77.53
2018-11-25T11:37:37.861Z,66.20
2018-11-25T11:40:10.178Z,72.80
2018-11-25T11:42:38.561Z,80.47
2018-11-25T11:45:10.456Z,82.27
2018-11-25T11:47:39.020Z,71.43
2018-11-25T11:50:11.379Z,75.73
2018-11-25T11:52:40.065Z,79.40
2018-11-25T11:55:11.185Z,73.70
2018-11-25T11:57:40.578Z,75.60
2018-11-25T12:00:25.780Z,77.93
2018-11-25T12:02:54.405Z,81.03
2018-11-25T12:05:22.884Z,82.17
2018-11-25T12:07:51.382Z,91.00
2018-11-25T12:10:20.045Z,84.23
2018-11-25T12:12:48.503Z,90.00
2018-11-25T12:15:30.882Z,91.43
2018-11-25T12:17:56.921Z,86.50
2018-11-25T12:20:26.461Z,73.73
2018-11-25T12:22:55.544Z,76.60
2018-11-25T12:25:24.116Z,86.17
2018-11-25T12:27:52.597Z,76.77
2018-11-25T12:30:21.057Z,81.87
2018-11-25T12:32:50.649Z,84.47
2018-11-25T12:35:19.172Z,84.63
2018-11-25T12:37:47.633Z,72.87
2018-11-25T12:40:17.941Z,86.00
2018-11-25T12:42:47.590Z,78.47
2018-11-25T12:45:17.839Z,86.60
2018-11-25T12:47:47.276Z,85.37
2018-11-25T12:50:17.817Z,89.93
2018-11-25T12:52:46.382Z,89.37
2018-11-25T12:55:22.759Z,90.93
2018-11-25T12:57:51.385Z,84.20
2018-11-25T13:00:51.261Z,81.87
2018-11-25T13:03:19.691Z,86.60
2018-11-25T13:05:48.128Z,80.70
2018-11-25T13:08:16.545Z,89.73
2018-11-25T13:10:45.193Z,89.87
2018-11-25T13:13:13.680Z,86.17
2018-11-25T13:15:42.107Z,88.27
2018-11-25T13:18:10.685Z,94.30
2018-11-25T13:20:39.127Z,82.30
2018-11-25T13:23:08.137Z,82.53
2018-11-25T13:25:36.617Z,85.03
2018-11-25T13:28:06.481Z,75.30
2018-11-25T13:30:35.157Z,79.93
2018-11-25T13:33:03.916Z,74.93
2018-11-25T13:35:35.471Z,87.47
2018-11-25T13:38:03.955Z,83.67
2018-11-25T13:40:32.452Z,85.97
2018-11-25T13:43:00.885Z,84.03
2018-11-25T13:45:29.372Z,80.30
2018-11-25T13:47:57.870Z,82.80
2018-11-25T13:50:26.312Z,81.83
2018-11-25T13:52:55.218Z,75.00
2018-11-25T13:55:25.294Z,85.13
2018-11-25T13:57:53.948Z,78.00
2018-11-25T14:00:35.612Z,77.53
2018-11-25T14:03:05.234Z,87.47
2018-11-25T14:05:33.864Z,77.70
2018-11-25T14:08:02.374Z,69.53
2018-11-25T14:10:32.673Z,77.90
2018-11-25T14:13:01.149Z,79.90
2018-11-25T14:15:29.786Z,77.00
2018-11-25T14:17:58.129Z,76.60
2018-11-25T14:20:26.607Z,77.50
2018-11-25T14:22:55.417Z,119.53
2018-11-25T14:25:24.626Z,79.30
2018-11-25T14:27:55.465Z,70.80
2018-11-25T14:30:25.690Z,68.33
2018-11-25T14:32:54.199Z,69.70
2018-11-25T14:35:22.693Z,66.97
2018-11-25T14:37:51.233Z,61.63
2018-11-25T14:40:20.195Z,62.40
2018-11-25T14:42:48.762Z,58.73
2018-11-25T14:45:18.234Z,57.57
2018-11-25T14:47:47.307Z,59.10
2018-11-25T14:50:17.893Z,64.67
2018-11-25T14:52:49.622Z,63.77
2018-11-25T14:55:18.522Z,71.43
2018-11-25T14:57:47.225Z,61.27
2018-11-25T15:00:22.138Z,60.30
2018-11-25T15:02:57.253Z,61.93
2018-11-25T15:05:33.277Z,66.80
2018-11-25T15:08:01.908Z,64.60
2018-11-25T15:10:30.386Z,56.07
2018-11-25T15:12:58.853Z,57.63
2018-11-25T15:15:27.347Z,58.10
2018-11-25T15:17:55.767Z,57.20
2018-11-25T15:20:24.313Z,60.17
2018-11-25T15:22:56.603Z,51.63
2018-11-25T15:25:27.228Z,52.60
2018-11-25T15:27:55.684Z,50.87
2018-11-25T15:30:24.202Z,51.53
2018-11-25T15:32:52.696Z,60.50
2018-11-25T15:37:55.216Z,51.53
2018-11-25T15:40:28.960Z,44.53
2018-11-25T15:42:57.512Z,46.33
2018-11-25T15:45:26.102Z,44.47
2018-11-25T15:47:57.007Z,40.40
2018-11-25T15:50:28.377Z,38.73
2018-11-25T15:52:57.924Z,42.60
2018-11-25T15:55:26.494Z,41.90
2018-11-25T15:57:55.055Z,41.37
2018-11-25T16:00:24.510Z,34.40
2018-11-25T16:02:53.563Z,40.50
2018-11-25T16:05:26.339Z,34.17
2018-11-25T16:07:54.849Z,33.43
2018-11-25T16:10:23.468Z,35.60
2018-11-25T16:12:52.492Z,37.97
2018-11-25T16:15:22.528Z,37.57
2018-11-25T16:17:50.999Z,34.73
2018-11-25T16:20:23.542Z,36.97
2018-11-25T16:22:55.640Z,37.00
2018-11-25T16:25:25.609Z,38.70
2018-11-25T16:27:57.117Z,34.63
2018-11-25T16:30:25.690Z,32.90
2018-11-25T16:32:54.125Z,36.37
2018-11-25T16:35:22.613Z,44.07
2018-11-25T16:37:51.087Z,41.30
2018-11-25T16:40:19.546Z,36.80
2018-11-25T16:42:48.066Z,36.30
2018-11-25T16:45:17.196Z,35.10
2018-11-25T16:47:45.703Z,34.17
2018-11-25T16:50:24.542Z,37.10
2018-11-25T16:52:44.411Z,37.10
2018-11-25T16:55:13.683Z,35.63
2018-11-25T16:57:42.693Z,32.23
2018-11-25T17:00:19.763Z,32.73
2018-11-25T17:02:48.261Z,31.50
2018-11-25T17:05:24.082Z,33.70
2018-11-25T17:07:54.494Z,32.37
2018-11-25T17:10:22.999Z,34.03
2018-11-25T17:12:51.531Z,35.10
2018-11-25T17:15:21.359Z,31.97
2018-11-25T17:17:49.830Z,32.23
2018-11-25T17:20:18.255Z,34.57
2018-11-25T17:22:46.725Z,32.93
2018-11-25T17:25:15.330Z,33.17
2018-11-25T17:27:43.904Z,33.47
2018-11-25T17:30:17.281Z,36.73
2018-11-25T17:32:46.224Z,34.70
2018-11-25T17:35:19.085Z,34.40
2018-11-25T17:37:47.584Z,32.63
2018-11-25T17:40:16.010Z,33.03
2018-11-25T17:42:44.445Z,32.30
2018-11-25T17:45:13.389Z,31.33
2018-11-25T17:47:42.201Z,35.70
2018-11-25T17:50:15.189Z,33.07
2018-11-25T17:52:43.680Z,33.13
2018-11-25T17:55:13.095Z,34.37
2018-11-25T17:57:41.677Z,36.93
2018-11-25T18:00:17.691Z,55.80
2018-11-25T18:02:46.181Z,34.07
2018-11-25T18:05:14.632Z,32.20
2018-11-25T18:07:43.192Z,32.30
2018-11-25T18:10:12.865Z,33.60
2018-11-25T18:12:41.594Z,43.60
2018-11-25T18:15:14.783Z,32.50
2018-11-25T18:17:47.205Z,27.20
2018-11-25T18:20:15.701Z,38.13
2018-11-25T18:22:46.542Z,36.40
2018-11-25T18:25:14.990Z,34.30
2018-11-25T18:27:43.472Z,33.27
2018-11-25T18:30:14.528Z,28.73
2018-11-25T18:32:43.771Z,28.20
2018-11-25T18:35:12.225Z,30.60
2018-11-25T18:37:40.741Z,27.03
2018-11-25T18:40:12.527Z,28.10
2018-11-25T18:42:41.554Z,34.43
2018-11-25T18:45:13.530Z,29.03
2018-11-25T18:47:42.914Z,33.73
2018-11-25T18:50:12.781Z,29.57
2018-11-25T18:52:41.590Z,29.60
2018-11-25T18:55:09.011Z,28.83
2018-11-25T18:57:37.485Z,29.67
2018-11-25T19:00:10.575Z,27.17
2018-11-25T19:02:44.383Z,26.47
2018-11-25T19:05:12.996Z,28.33
2018-11-25T19:07:41.499Z,26.80
2018-11-25T19:10:14.622Z,28.83
2018-11-25T19:12:44.322Z,28.23
2018-11-25T19:15:13.337Z,28.60
2018-11-25T19:17:41.809Z,28.53
2018-11-25T19:20:17.643Z,27.63
2018-11-25T19:22:46.133Z,23.93
2018-11-25T19:25:15.923Z,23.47
2018-11-25T19:27:45.608Z,26.10
2018-11-25T19:30:14.940Z,29.23
2018-11-25T19:32:44.798Z,28.13
2018-11-25T19:35:14.378Z,27.37
2018-11-25T19:37:43.382Z,29.10
2018-11-25T19:40:14.802Z,26.40
2018-11-25T19:42:43.611Z,27.63
2018-11-25T19:45:18.299Z,30.27
2018-11-25T19:47:46.983Z,29.40
2018-11-25T19:50:19.942Z,29.33
2018-11-25T19:52:48.368Z,28.20
2018-11-25T19:55:16.825Z,27.87
2018-11-25T19:57:45.320Z,31.43
2018-11-25T20:00:18.348Z,33.50
2018-11-25T20:02:46.869Z,31.37
2018-11-25T20:05:15.429Z,33.77
2018-11-25T20:07:44.301Z,28.27
2018-11-25T20:10:13.804Z,29.40
2018-11-25T20:12:43.884Z,31.77
2018-11-25T20:15:15.271Z,32.80
2018-11-25T20:17:44.043Z,29.87
2018-11-25T20:20:15.643Z,27.33
2018-11-25T20:22:44.265Z,29.13
2018-11-25T20:25:13.693Z,31.27
2018-11-25T20:27:49.667Z,28.93
2018-11-25T20:30:19.742Z,30.90
2018-11-25T20:32:53.549Z,24.77
2018-11-25T20:35:22.103Z,23.47
2018-11-25T20:37:55.809Z,19.90
2018-11-25T20:40:24.331Z,25.30
2018-11-25T20:42:52.978Z,25.53
2018-11-25T20:45:27.394Z,27.90
2018-11-25T20:47:59.210Z,27.67
2018-11-25T20:50:26.825Z,27.37
2018-11-25T20:53:00.777Z,20.20
2018-11-25T20:55:29.345Z,23.80
2018-11-25T20:57:57.823Z,24.17
2018-11-25T21:00:27.589Z,20.10
2018-11-25T21:02:56.362Z,19.63
2018-11-25T21:05:24.899Z,20.97
2018-11-25T21:07:53.414Z,22.80
2018-11-25T21:10:21.920Z,21.33
2018-11-25T21:12:53.514Z,23.30
2018-11-25T21:15:21.977Z,20.53
2018-11-25T21:17:50.439Z,20.77
2018-11-25T21:20:20.429Z,23.83
2018-11-25T21:22:49.310Z,26.30
2018-11-25T21:25:19.714Z,27.70
2018-11-25T21:27:48.378Z,30.03
2018-11-25T21:30:20.335Z,29.07
2018-11-25T21:32:50.290Z,27.13
2018-11-25T21:35:18.775Z,26.30
2018-11-25T21:37:47.221Z,26.73
2018-11-25T21:40:17.930Z,25.27
2018-11-25T21:42:46.443Z,23.17
2018-11-25T21:45:15.961Z,26.60
2018-11-25T21:47:44.795Z,25.33
2018-11-25T21:50:19.395Z,27.33
2018-11-25T21:52:48.014Z,22.87
2018-11-25T21:55:17.547Z,25.97
2018-11-25T21:57:46.425Z,24.40
2018-11-25T22:00:15.941Z,22.73
2018-11-25T22:02:44.790Z,25.87
2018-11-25T22:05:13.931Z,25.33
2018-11-25T22:07:48.644Z,28.40
2018-11-25T22:10:19.479Z,28.13
2018-11-25T22:12:48.432Z,27.27
2018-11-25T22:15:20.016Z,23.83
2018-11-25T22:17:48.555Z,25.53
2018-11-25T22:20:17.536Z,32.17
2018-11-25T22:22:46.134Z,28.23
2018-11-25T22:25:17.120Z,28.07
2018-11-25T22:27:45.698Z,26.70
2018-11-25T22:30:20.092Z,25.80
2018-11-25T22:32:48.706Z,29.27
2018-11-25T22:35:18.493Z,26.47
2018-11-25T22:37:47.075Z,25.67
2018-11-25T22:40:16.510Z,26.97
2018-11-25T22:42:46.080Z,27.43
2018-11-25T22:45:17.741Z,28.30
2018-11-25T22:47:46.322Z,27.07
2018-11-25T22:50:16.254Z,23.27
2018-11-25T22:52:44.964Z,26.77
2018-11-25T22:55:16.599Z,25.93
2018-11-25T22:57:45.151Z,27.33
2018-11-25T23:00:44.529Z,26.80
2018-11-25T23:03:13.062Z,27.83
2018-11-25T23:06:55.092Z,26.40
2018-11-25T23:09:23.641Z,23.00
2018-11-25T23:11:52.231Z,24.40
2018-11-25T23:14:20.806Z,26.47
2018-11-25T23:16:49.353Z,26.63
2018-11-25T23:19:18.013Z,27.30
2018-11-25T23:21:46.512Z,26.77
2018-11-25T23:24:15.330Z,27.17
2018-11-25T23:26:43.839Z,27.10
2018-11-25T23:29:12.436Z,27.37
2018-11-25T23:31:41.224Z,21.57
2018-11-25T23:34:09.782Z,29.03
2018-11-25T23:36:40.726Z,27.57
2018-11-25T23:39:10.120Z,22.13
2018-11-25T23:41:39.902Z,25.70
2018-11-25T23:44:08.676Z,26.23
2018-11-25T23:46:37.208Z,25.73
2018-11-25T23:49:05.935Z,27.53
2018-11-25T23:51:34.525Z,27.10
2018-11-25T23:54:03.083Z,26.80
2018-11-25T23:56:31.697Z,27.03
2018-11-25T23:59:00.200Z,27.33
